createdAt,value
2016-03-29T00:00:41.442Z,153
2016-03-29T00:01:42.320Z,67
2016-03-29T00:02:41.011Z,68
2016-03-29T00:03:40.295Z,68
2016-03-29T00:04:39.345Z,68
2016-03-29T00:05:38.145Z,67
2016-03-29T00:08:35.042Z,68
2016-03-29T00:09:34.217Z,68
2016-03-29T00:10:33.188Z,68
2016-03-29T00:11:34.208Z,68
2016-03-29T00:12:33.272Z,67
2016-03-29T00:13:32.056Z,68
2016-03-29T00:14:31.106Z,68
2016-03-29T00:15:30.155Z,68
2016-03-29T00:16:29.470Z,68
2016-03-29T00:17:28.379Z,68
2016-03-29T00:18:27.413Z,68
2016-03-29T00:19:26.572Z,68
2016-03-29T00:20:25.449Z,67
2016-03-29T00:22:25.534Z,68
2016-03-29T00:23:24.676Z,68
2016-03-29T00:24:23.602Z,67
2016-03-29T00:25:22.573Z,68
2016-03-29T00:26:21.560Z,67
2016-03-29T00:27:20.234Z,67
2016-03-29T00:28:19.143Z,67
2016-03-29T00:29:18.053Z,67
2016-03-29T00:30:16.789Z,67
2016-03-29T00:31:17.714Z,67
2016-03-29T00:32:16.481Z,67
2016-03-29T00:34:14.097Z,67
2016-03-29T00:35:12.990Z,67
2016-03-29T00:36:11.665Z,67
2016-03-29T00:37:10.574Z,67
2016-03-29T00:38:09.264Z,67
2016-03-29T00:39:08.157Z,67
2016-03-29T00:40:07.004Z,67
2016-03-29T00:41:07.913Z,67
2016-03-29T00:42:06.822Z,67
2016-03-29T00:43:05.496Z,67
2016-03-29T00:45:03.205Z,67
2016-03-29T00:46:01.877Z,67
2016-03-29T00:47:00.676Z,67
2016-03-29T00:47:59.461Z,67
2016-03-29T00:48:58.275Z,67
2016-03-29T00:49:57.122Z,67
2016-03-29T00:50:58.124Z,67
2016-03-29T00:51:57.033Z,67
2016-03-29T00:52:55.583Z,67
2016-03-29T00:53:54.257Z,67
2016-03-29T00:54:53.151Z,67
2016-03-29T00:55:51.841Z,67
2016-03-29T00:56:50.641Z,67
2016-03-29T00:57:49.549Z,67
2016-03-29T00:58:48.349Z,67
2016-03-29T00:59:47.102Z,67
2016-03-29T01:00:48.245Z,67
2016-03-29T01:01:46.997Z,67
2016-03-29T01:02:45.907Z,67
2016-03-29T01:03:44.706Z,67
2016-03-29T01:04:43.287Z,67
2016-03-29T01:05:42.070Z,67
2016-03-29T01:06:40.870Z,67
2016-03-29T01:07:39.659Z,67
2016-03-29T01:09:37.305Z,67
2016-03-29T01:10:38.433Z,67
2016-03-29T01:11:37.233Z,67
2016-03-29T01:12:35.938Z,67
2016-03-29T01:13:34.832Z,67
2016-03-29T01:14:33.616Z,67
2016-03-29T01:15:32.525Z,67
2016-03-29T01:16:31.199Z,67
2016-03-29T01:17:29.890Z,67
2016-03-29T01:18:28.799Z,67
2016-03-29T01:19:27.520Z,67
2016-03-29T01:20:28.788Z,67
2016-03-29T01:21:27.196Z,67
2016-03-29T01:22:25.622Z,67
2016-03-29T01:23:24.546Z,67
2016-03-29T01:24:23.221Z,67
2016-03-29T01:25:21.754Z,67
2016-03-29T01:26:20.414Z,67
2016-03-29T01:27:19.088Z,67
2016-03-29T01:28:17.997Z,67
2016-03-29T01:29:16.875Z,67
2016-03-29T01:30:17.862Z,67
2016-03-29T01:31:16.411Z,67
2016-03-29T01:32:14.945Z,67
2016-03-29T01:33:13.495Z,67
2016-03-29T01:34:12.139Z,67
2016-03-29T01:35:10.453Z,67
2016-03-29T01:36:09.111Z,67
2016-03-29T01:37:07.646Z,67
2016-03-29T01:38:06.196Z,67
2016-03-29T01:39:04.699Z,67
2016-03-29T01:41:04.282Z,67
2016-03-29T01:42:02.785Z,67
2016-03-29T01:43:01.457Z,67
2016-03-29T01:43:59.866Z,67
2016-03-29T01:44:58.508Z,67
2016-03-29T01:45:57.058Z,67
2016-03-29T01:46:55.624Z,67
2016-03-29T01:47:54.032Z,67
2016-03-29T01:48:52.738Z,67
2016-03-29T01:49:53.646Z,67
2016-03-29T01:50:52.182Z,67
2016-03-29T01:52:49.280Z,67
2016-03-29T01:53:47.815Z,67
2016-03-29T01:55:45.007Z,67
2016-03-29T01:56:43.556Z,67
2016-03-29T01:58:40.578Z,66
2016-03-29T01:59:41.596Z,67
2016-03-29T07:29:47.744Z,66
2016-03-29T07:31:46.843Z,66
2016-03-29T07:32:44.877Z,66
2016-03-29T07:33:43.145Z,66
2016-03-29T07:35:38.979Z,66
2016-03-29T08:29:17.919Z,67
2016-03-29T08:32:15.193Z,67
2016-03-29T08:35:10.826Z,67
2016-03-29T08:38:06.428Z,67
2016-03-29T08:40:05.948Z,66
2016-03-29T08:42:05.423Z,64
2016-03-29T08:43:06.363Z,64
2016-03-29T08:46:09.106Z,64
2016-03-29T08:56:15.258Z,63
2016-03-29T08:57:15.557Z,63
2016-03-29T09:02:18.289Z,64
2016-03-29T09:04:20.076Z,64
2016-03-29T09:05:20.657Z,64
2016-03-29T09:06:21.708Z,64
2016-03-29T09:08:23.119Z,64
2016-03-29T09:15:32.184Z,65
2016-03-29T09:19:38.570Z,65
2016-03-29T09:20:39.620Z,65
2016-03-29T09:21:41.169Z,65
2016-03-29T09:22:42.985Z,65
2016-03-29T09:23:40.550Z,65
2016-03-29T09:26:33.917Z,65
2016-03-29T09:27:31.686Z,65
2016-03-29T09:28:29.469Z,65
2016-03-29T09:29:27.331Z,65
2016-03-29T09:30:28.318Z,65
2016-03-29T09:31:26.133Z,66
2016-03-29T09:32:23.886Z,66
2016-03-29T09:33:21.671Z,66
2016-03-29T09:34:19.470Z,66
2016-03-29T09:35:17.473Z,66
2016-03-29T09:38:10.715Z,66
2016-03-29T09:39:08.421Z,66
2016-03-29T09:40:09.580Z,66
2016-03-29T09:42:05.257Z,66
2016-03-29T09:44:00.606Z,66
2016-03-29T09:44:58.359Z,66
2016-03-29T09:45:56.132Z,66
2016-03-29T09:47:51.747Z,66
2016-03-29T09:48:49.703Z,66
2016-03-29T09:49:50.564Z,66
2016-03-29T09:51:46.117Z,66
2016-03-29T09:52:43.914Z,66
2016-03-29T09:56:35.019Z,66
2016-03-29T09:57:32.803Z,66
2016-03-29T09:58:30.633Z,66
2016-03-29T09:59:31.917Z,66
2016-03-29T10:00:29.435Z,66
2016-03-29T10:01:27.329Z,66
2016-03-29T10:02:25.002Z,66
2016-03-29T10:03:22.771Z,66
2016-03-29T10:04:20.680Z,66
2016-03-29T10:05:18.339Z,66
2016-03-29T10:06:16.264Z,66
2016-03-29T10:07:13.907Z,66
2016-03-29T10:08:11.863Z,66
2016-03-29T10:09:12.757Z,66
2016-03-29T10:10:10.478Z,66
2016-03-29T10:11:08.559Z,66
2016-03-29T10:12:06.170Z,66
2016-03-29T10:17:58.687Z,71
2016-03-29T10:18:59.690Z,71
2016-03-29T10:20:00.755Z,71
2016-03-29T10:21:01.867Z,72
2016-03-29T10:22:03.416Z,72
2016-03-29T10:23:05.013Z,73
2016-03-29T10:24:02.797Z,73
2016-03-29T10:25:00.815Z,74
2016-03-29T10:25:59.115Z,74
2016-03-29T10:26:57.680Z,75
2016-03-29T10:27:56.480Z,75
2016-03-29T10:28:57.513Z,75
2016-03-29T10:29:56.547Z,75
2016-03-29T10:30:55.830Z,76
2016-03-29T10:31:55.396Z,76
2016-03-29T10:32:55.055Z,76
2016-03-29T10:33:54.510Z,76
2016-03-29T10:34:54.326Z,76
2016-03-29T10:35:54.126Z,76
2016-03-29T10:36:53.925Z,76
2016-03-29T10:37:53.787Z,76
2016-03-29T10:38:54.806Z,76
2016-03-29T10:39:54.480Z,76
2016-03-29T10:40:53.921Z,76
2016-03-29T10:41:53.610Z,75
2016-03-29T10:42:52.770Z,75
2016-03-29T10:43:52.100Z,75
2016-03-29T10:44:51.275Z,75
2016-03-29T10:45:50.293Z,75
2016-03-29T10:46:49.233Z,75
2016-03-29T10:47:47.795Z,75
2016-03-29T10:48:49.239Z,74
2016-03-29T10:49:47.676Z,74
2016-03-29T10:50:46.178Z,74
2016-03-29T10:51:44.791Z,74
2016-03-29T10:52:42.747Z,74
2016-03-29T10:53:41.156Z,73
2016-03-29T10:54:39.064Z,73
2016-03-29T10:55:37.100Z,73
2016-03-29T10:56:35.242Z,73
2016-03-29T10:57:33.230Z,73
2016-03-29T10:58:34.247Z,73
2016-03-29T10:59:32.064Z,73
2016-03-29T11:00:29.925Z,72
2016-03-29T11:01:31.381Z,72
2016-03-29T11:02:32.977Z,72
2016-03-29T11:03:34.667Z,72
2016-03-29T11:04:36.139Z,72
2016-03-29T11:05:37.579Z,72
2016-03-29T11:06:38.785Z,72
2016-03-29T11:07:40.193Z,71
2016-03-29T11:08:41.180Z,71
2016-03-29T11:09:42.277Z,71
2016-03-29T11:10:43.343Z,71
2016-03-29T11:11:44.407Z,71
2016-03-29T11:12:45.613Z,71
2016-03-29T11:13:46.304Z,71
2016-03-29T11:14:47.134Z,71
2016-03-29T11:15:47.949Z,71
2016-03-29T11:16:48.764Z,71
2016-03-29T11:17:49.786Z,71
2016-03-29T11:18:50.679Z,71
2016-03-29T11:19:51.260Z,71
2016-03-29T11:20:51.825Z,71
2016-03-29T11:21:52.390Z,71
2016-03-29T11:22:52.956Z,71
2016-03-29T11:23:53.520Z,71
2016-03-29T11:24:54.086Z,71
2016-03-29T11:25:54.651Z,71
2016-03-29T11:26:55.232Z,71
2016-03-29T11:27:55.845Z,70
2016-03-29T11:28:56.862Z,70
2016-03-29T11:29:57.178Z,70
2016-03-29T11:30:57.477Z,70
2016-03-29T11:32:58.123Z,70
2016-03-29T11:33:58.422Z,70
2016-03-29T11:34:58.738Z,70
2016-03-29T11:35:59.052Z,70
2016-03-29T11:36:59.369Z,70
2016-03-29T11:37:59.730Z,70
2016-03-29T11:39:00.858Z,70
2016-03-29T11:40:00.814Z,70
2016-03-29T11:41:00.988Z,70
2016-03-29T11:42:00.944Z,70
2016-03-29T11:43:01.009Z,70
2016-03-29T11:44:01.059Z,70
2016-03-29T11:45:01.233Z,70
2016-03-29T11:46:01.173Z,70
2016-03-29T11:47:01.223Z,70
2016-03-29T11:48:01.350Z,70
2016-03-29T11:49:02.353Z,69
2016-03-29T11:50:02.168Z,69
2016-03-29T11:51:01.968Z,69
2016-03-29T11:52:01.783Z,69
2016-03-29T11:53:01.583Z,69
2016-03-29T11:54:01.398Z,69
2016-03-29T11:55:01.214Z,69
2016-03-29T11:56:01.014Z,69
2016-03-29T11:57:00.812Z,69
2016-03-29T11:58:00.784Z,69
2016-03-29T11:59:01.833Z,69
2016-03-29T12:00:01.617Z,69
2016-03-29T12:01:01.308Z,69
2016-03-29T12:02:01.123Z,69
2016-03-29T12:03:00.672Z,69
2016-03-29T12:04:00.206Z,69
2016-03-29T12:04:59.771Z,69
2016-03-29T12:05:59.321Z,69
2016-03-29T12:06:58.871Z,69
2016-03-29T12:07:58.480Z,69
2016-03-29T12:08:59.498Z,69
2016-03-29T12:09:59.173Z,69
2016-03-29T12:10:58.723Z,69
2016-03-29T12:11:58.178Z,69
2016-03-29T12:12:57.712Z,69
2016-03-29T12:13:57.261Z,69
2016-03-29T12:14:56.842Z,69
2016-03-29T12:15:56.377Z,69
2016-03-29T12:16:55.926Z,69
2016-03-29T12:17:55.537Z,69
2016-03-29T12:18:56.556Z,69
2016-03-29T12:19:56.105Z,69
2016-03-29T12:20:55.670Z,69
2016-03-29T12:21:55.220Z,69
2016-03-29T12:22:54.786Z,69
2016-03-29T12:23:54.320Z,69
2016-03-29T12:24:53.886Z,69
2016-03-29T12:25:53.434Z,69
2016-03-29T12:26:52.984Z,68
2016-03-29T12:27:52.347Z,68
2016-03-29T12:28:53.364Z,68
2016-03-29T12:29:52.680Z,68
2016-03-29T12:30:51.964Z,69
2016-03-29T12:31:51.513Z,69
2016-03-29T12:32:51.063Z,69
2016-03-29T12:33:50.610Z,68
2016-03-29T12:34:49.910Z,68
2016-03-29T12:35:49.208Z,68
2016-03-29T12:36:48.508Z,69
2016-03-29T12:37:48.245Z,69
2016-03-29T12:38:49.154Z,69
2016-03-29T12:39:48.688Z,69
2016-03-29T12:40:48.253Z,69
2016-03-29T12:41:47.803Z,69
2016-03-29T12:42:47.352Z,69
2016-03-29T12:43:46.902Z,69
2016-03-29T12:44:46.468Z,69
2016-03-29T12:45:46.018Z,69
2016-03-29T12:46:45.613Z,69
2016-03-29T12:47:45.179Z,69
2016-03-29T12:48:46.198Z,69
2016-03-29T12:49:45.746Z,69
2016-03-29T12:50:45.296Z,68
2016-03-29T12:51:44.596Z,69
2016-03-29T12:52:44.145Z,69
2016-03-29T12:53:43.820Z,69
2016-03-29T12:54:43.259Z,69
2016-03-29T12:55:42.809Z,69
2016-03-29T12:56:42.359Z,69
2016-03-29T12:57:42.017Z,68
2016-03-29T12:58:42.989Z,68
2016-03-29T12:59:42.289Z,68
2016-03-29T13:00:41.588Z,68
2016-03-29T13:01:40.888Z,68
2016-03-29T13:02:40.218Z,68
2016-03-29T13:03:39.502Z,68
2016-03-29T13:04:38.896Z,68
2016-03-29T13:05:38.086Z,68
2016-03-29T13:06:37.385Z,68
2016-03-29T13:07:36.732Z,68
2016-03-29T13:08:37.751Z,68
2016-03-29T13:09:37.050Z,68
2016-03-29T13:10:36.350Z,68
2016-03-29T13:11:35.649Z,68
2016-03-29T13:12:35.105Z,68
2016-03-29T13:13:34.249Z,68
2016-03-29T13:14:33.298Z,68
2016-03-29T13:15:32.410Z,68
2016-03-29T13:16:31.398Z,68
2016-03-29T13:17:30.493Z,68
2016-03-29T13:18:31.621Z,68
2016-03-29T13:19:30.562Z,68
2016-03-29T13:20:29.595Z,68
2016-03-29T13:21:28.645Z,68
2016-03-29T13:22:27.694Z,68
2016-03-29T13:23:26.728Z,68
2016-03-29T13:24:25.778Z,68
2016-03-29T13:25:24.937Z,68
2016-03-29T13:26:23.877Z,68
2016-03-29T13:27:22.973Z,68
2016-03-29T13:28:23.991Z,68
2016-03-29T13:29:23.041Z,68
2016-03-29T13:30:22.091Z,68
2016-03-29T13:31:21.266Z,68
2016-03-29T13:32:20.174Z,68
2016-03-29T13:33:18.974Z,68
2016-03-29T13:34:17.789Z,68
2016-03-29T13:35:16.557Z,68
2016-03-29T13:36:15.466Z,68
2016-03-29T13:37:14.188Z,68
2016-03-29T13:38:15.206Z,68
2016-03-29T13:39:14.005Z,68
2016-03-29T13:40:12.805Z,68
2016-03-29T13:41:11.620Z,68
2016-03-29T13:42:10.388Z,68
2016-03-29T13:43:09.173Z,68
2016-03-29T13:44:08.097Z,68
2016-03-29T13:45:06.756Z,68
2016-03-29T13:46:05.556Z,68
2016-03-29T13:47:04.418Z,68
2016-03-29T13:48:05.420Z,68
2016-03-29T13:49:04.221Z,68
2016-03-29T13:50:03.020Z,68
2016-03-29T13:51:01.804Z,68
2016-03-29T13:52:00.604Z,68
2016-03-29T13:52:59.512Z,68
2016-03-29T13:53:58.171Z,68
2016-03-29T13:54:57.095Z,68
2016-03-29T13:55:55.770Z,68
2016-03-29T13:56:54.617Z,68
2016-03-29T13:57:55.635Z,68
2016-03-29T13:58:54.434Z,68
2016-03-29T13:59:53.216Z,68
2016-03-29T14:00:52.016Z,68
2016-03-29T14:01:50.799Z,68
2016-03-29T14:02:49.583Z,68
2016-03-29T14:03:48.382Z,68
2016-03-29T14:04:47.182Z,68
2016-03-29T14:05:45.966Z,68
2016-03-29T14:06:44.813Z,68
2016-03-29T14:07:45.918Z,68
2016-03-29T14:08:44.581Z,68
2016-03-29T14:09:43.426Z,68
2016-03-29T14:10:42.270Z,68
2016-03-29T14:11:41.000Z,68
2016-03-29T14:12:39.784Z,68
2016-03-29T14:13:38.584Z,68
2016-03-29T14:14:37.368Z,68
2016-03-29T14:15:36.151Z,68
2016-03-29T14:16:35.029Z,68
2016-03-29T14:17:36.156Z,68
2016-03-29T14:18:34.831Z,68
2016-03-29T14:19:33.631Z,68
2016-03-29T14:20:32.417Z,68
2016-03-29T14:21:31.372Z,68
2016-03-29T14:22:30.125Z,68
2016-03-29T14:23:28.800Z,68
2016-03-29T14:24:27.584Z,68
2016-03-29T14:25:26.383Z,68
2016-03-29T14:27:26.249Z,68
2016-03-29T14:28:25.048Z,68
2016-03-29T14:29:23.847Z,68
2016-03-29T14:30:22.616Z,68
2016-03-29T14:31:21.431Z,68
2016-03-29T14:32:20.215Z,68
2016-03-29T14:33:19.187Z,67
2016-03-29T14:34:17.548Z,67
2016-03-29T14:35:16.082Z,67
2016-03-29T14:36:14.679Z,67
2016-03-29T14:37:15.697Z,67
2016-03-29T14:38:14.231Z,67
2016-03-29T14:39:12.781Z,67
2016-03-29T14:40:11.314Z,67
2016-03-29T14:41:09.864Z,67
2016-03-29T14:42:08.398Z,67
2016-03-29T14:43:07.042Z,67
2016-03-29T14:44:05.481Z,67
2016-03-29T14:45:04.031Z,67
2016-03-29T14:46:02.612Z,67
2016-03-29T14:47:03.630Z,67
2016-03-29T14:48:02.164Z,67
2016-03-29T14:49:00.714Z,67
2016-03-29T14:49:59.247Z,67
2016-03-29T14:50:57.781Z,67
2016-03-29T14:51:56.328Z,67
2016-03-29T14:52:54.863Z,67
2016-03-29T14:53:53.427Z,68
2016-03-29T14:54:52.211Z,68
2016-03-29T14:55:51.183Z,68
2016-03-29T14:56:52.076Z,68
2016-03-29T14:57:50.876Z,68
2016-03-29T14:58:49.660Z,68
2016-03-29T14:59:48.444Z,67
2016-03-29T15:00:47.087Z,67
2016-03-29T15:01:45.512Z,67
2016-03-29T15:02:44.061Z,67
2016-03-29T15:03:42.595Z,67
2016-03-29T15:04:41.129Z,67
2016-03-29T15:05:39.726Z,67
2016-03-29T15:06:40.743Z,67
2016-03-29T15:07:39.309Z,67
2016-03-29T15:08:37.827Z,67
2016-03-29T15:09:36.376Z,67
2016-03-29T15:10:34.895Z,67
2016-03-29T15:11:33.445Z,67
2016-03-29T15:12:31.978Z,67
2016-03-29T15:13:30.528Z,67
2016-03-29T15:14:29.062Z,67
2016-03-29T15:15:27.675Z,67
2016-03-29T15:16:28.692Z,68
2016-03-29T15:17:27.476Z,68
2016-03-29T15:18:26.261Z,68
2016-03-29T15:19:25.075Z,68
2016-03-29T15:20:23.875Z,68
2016-03-29T15:21:22.659Z,68
2016-03-29T15:22:21.489Z,68
2016-03-29T15:23:20.258Z,68
2016-03-29T15:24:19.027Z,68
2016-03-29T15:25:17.997Z,68
2016-03-29T15:26:18.891Z,68
2016-03-29T15:27:17.690Z,68
2016-03-29T15:28:16.599Z,68
2016-03-29T15:29:15.274Z,67
2016-03-29T15:30:14.074Z,68
2016-03-29T15:31:12.874Z,67
2016-03-29T15:32:11.657Z,68
2016-03-29T15:33:10.441Z,67
2016-03-29T15:34:09.240Z,67
2016-03-29T15:35:08.104Z,67
2016-03-29T15:36:09.137Z,67
2016-03-29T15:37:07.905Z,67
2016-03-29T15:38:06.689Z,67
2016-03-29T15:39:05.489Z,67
2016-03-29T15:40:04.288Z,67
2016-03-29T15:41:03.072Z,67
2016-03-29T15:42:01.872Z,67
2016-03-29T15:43:00.671Z,67
2016-03-29T15:43:59.456Z,67
2016-03-29T15:44:58.299Z,67
2016-03-29T15:45:59.318Z,67
2016-03-29T15:46:58.117Z,67
2016-03-29T15:47:56.917Z,67
2016-03-29T15:48:55.700Z,67
2016-03-29T15:49:54.609Z,67
2016-03-29T15:51:52.083Z,67
2016-03-29T15:52:50.461Z,67
2016-03-29T15:53:49.667Z,67
2016-03-29T15:54:48.530Z,67
2016-03-29T15:55:49.547Z,67
2016-03-29T15:56:48.331Z,67
2016-03-29T15:57:47.131Z,67
2016-03-29T15:58:45.930Z,67
2016-03-29T15:59:44.730Z,67
2016-03-29T16:00:43.514Z,67
2016-03-29T16:01:42.290Z,67
2016-03-29T16:02:41.079Z,67
2016-03-29T16:03:39.869Z,68
2016-03-29T16:04:38.847Z,67
2016-03-29T16:05:39.715Z,67
2016-03-29T16:06:38.494Z,67
2016-03-29T16:07:37.291Z,67
2016-03-29T16:08:36.087Z,67
2016-03-29T16:09:34.867Z,67
2016-03-29T16:10:33.664Z,67
2016-03-29T16:11:32.446Z,67
2016-03-29T16:12:31.244Z,67
2016-03-29T16:13:30.152Z,68
2016-03-29T16:14:28.904Z,67
2016-03-29T16:15:29.936Z,67
2016-03-29T16:16:28.705Z,67
2016-03-29T16:17:27.503Z,67
2016-03-29T16:18:26.287Z,67
2016-03-29T16:19:25.103Z,67
2016-03-29T16:20:23.870Z,67
2016-03-29T16:21:22.686Z,67
2016-03-29T16:22:21.485Z,67
2016-03-29T16:23:20.285Z,67
2016-03-29T16:25:20.134Z,68
2016-03-29T16:26:19.293Z,68
2016-03-29T16:31:15.166Z,68
2016-03-29T16:32:14.606Z,68
2016-03-29T16:33:13.780Z,68
2016-03-29T16:34:13.252Z,68
2016-03-29T16:35:14.177Z,69
2016-03-29T16:36:13.710Z,69
2016-03-29T16:37:13.416Z,69
2016-03-29T16:38:12.934Z,69
2016-03-29T16:39:12.484Z,69
2016-03-29T16:40:11.940Z,69
2016-03-29T16:41:11.473Z,69
2016-03-29T16:42:11.051Z,69
2016-03-29T16:43:10.773Z,69
2016-03-29T16:44:10.323Z,69
2016-03-29T16:45:11.262Z,69
2016-03-29T16:46:10.895Z,69
2016-03-29T16:47:10.335Z,69
2016-03-29T16:48:09.885Z,69
2016-03-29T16:49:09.450Z,69
2016-03-29T16:50:08.984Z,69
2016-03-29T16:51:08.550Z,68
2016-03-29T16:52:07.975Z,69
2016-03-29T16:53:07.524Z,68
2016-03-29T16:54:06.777Z,69
2016-03-29T16:55:07.920Z,68
2016-03-29T16:57:06.378Z,68
2016-03-29T16:58:05.710Z,68
2016-03-29T16:59:04.977Z,69
2016-03-29T17:00:04.652Z,68
2016-03-29T17:01:03.998Z,68
2016-03-29T17:03:02.708Z,69
2016-03-29T17:04:02.335Z,69
2016-03-29T17:05:03.322Z,69
2016-03-29T17:08:01.988Z,69
2016-03-29T17:10:01.211Z,69
2016-03-29T17:12:00.327Z,69
2016-03-29T17:12:59.860Z,69
2016-03-29T17:13:59.363Z,69
2016-03-29T17:15:00.474Z,69
2016-03-29T17:16:00.055Z,69
2016-03-29T17:17:59.046Z,69
2016-03-29T17:18:58.720Z,69
2016-03-29T17:23:58.561Z,69
2016-03-29T17:24:57.579Z,69
2016-03-29T17:25:57.114Z,69
2016-03-29T17:26:56.554Z,69
2016-03-29T17:27:56.228Z,69
2016-03-29T17:28:55.653Z,69
2016-03-29T17:29:55.218Z,69
2016-03-29T17:30:54.878Z,69
2016-03-29T17:31:54.348Z,69
2016-03-29T17:32:54.039Z,69
2016-03-29T17:33:53.495Z,69
2016-03-29T17:34:54.544Z,69
2016-03-29T17:36:53.722Z,69
2016-03-29T17:38:52.727Z,69
2016-03-29T17:39:52.386Z,69
2016-03-29T17:41:51.391Z,69
2016-03-29T17:42:51.066Z,69
2016-03-29T17:43:50.537Z,68
2016-03-29T17:44:51.743Z,68
2016-03-29T17:45:50.980Z,69
2016-03-29T17:46:50.421Z,68
2016-03-29T17:47:49.845Z,68
2016-03-29T17:49:48.429Z,68
2016-03-29T17:50:47.744Z,68
2016-03-29T17:51:47.043Z,68
2016-03-29T17:52:46.343Z,68
2016-03-29T17:53:45.689Z,68
2016-03-29T17:55:45.882Z,68
2016-03-29T17:56:44.681Z,68
2016-03-29T17:57:43.887Z,67
2016-03-29T17:58:42.687Z,67
2016-03-29T18:00:39.880Z,67
2016-03-29T18:01:38.508Z,67
2016-03-29T18:02:37.167Z,67
2016-03-29T18:03:35.763Z,67
2016-03-29T18:04:36.562Z,67
2016-03-29T18:05:34.831Z,67
2016-03-29T18:06:33.130Z,67
2016-03-29T18:07:31.431Z,67
2016-03-29T18:09:28.096Z,67
2016-03-29T18:10:26.380Z,67
2016-03-29T18:11:24.555Z,67
2016-03-29T18:12:23.088Z,67
2016-03-29T18:13:21.966Z,68
2016-03-29T18:14:23.079Z,68
2016-03-29T18:15:22.018Z,68
2016-03-29T18:18:20.415Z,69
2016-03-29T18:23:19.773Z,70
2016-03-29T18:24:20.603Z,70
2016-03-29T18:25:20.731Z,70
2016-03-29T18:29:21.853Z,70
2016-03-29T18:30:21.369Z,70
2016-03-29T18:33:21.831Z,74
2016-03-29T18:40:16.161Z,67
2016-03-29T19:02:22.377Z,64
2016-03-29T19:03:23.739Z,64
2016-03-29T19:11:33.607Z,65
2016-03-29T19:12:34.907Z,65
2016-03-29T19:18:42.783Z,65
2016-03-29T19:21:46.837Z,65
2016-03-29T19:26:53.132Z,65
2016-03-29T19:32:00.395Z,65
2016-03-29T19:35:04.637Z,65
2016-03-29T19:36:06.095Z,65
2016-03-29T19:37:07.550Z,65
2016-03-29T19:39:10.837Z,65
2016-03-29T19:42:15.578Z,65
2016-03-29T19:43:17.113Z,65
2016-03-29T19:46:17.731Z,66
2016-03-29T19:48:13.548Z,66
2016-03-29T19:50:09.476Z,67
2016-03-29T20:03:55.373Z,64
2016-03-29T20:12:01.820Z,63
2016-03-29T20:30:05.744Z,62
2016-03-29T20:35:06.195Z,62
2016-03-29T20:36:05.885Z,62
2016-03-29T20:39:05.581Z,62
2016-03-29T20:40:05.615Z,62
2016-03-29T20:41:05.289Z,62
2016-03-29T20:43:05.451Z,62
2016-03-29T20:44:05.578Z,62
2016-03-29T20:45:06.831Z,62
2016-03-29T20:47:06.806Z,62
2016-03-29T20:48:06.746Z,62
2016-03-29T20:50:06.751Z,62
2016-03-29T20:52:06.991Z,62
2016-03-29T20:56:08.378Z,62
2016-03-29T21:08:09.409Z,62
2016-03-29T21:09:09.193Z,62
2016-03-29T21:11:09.183Z,62
2016-03-29T21:13:09.204Z,62
2016-03-29T21:14:09.284Z,62
2016-03-29T21:15:10.459Z,62
2016-03-29T21:16:10.633Z,62
2016-03-29T21:39:14.086Z,62
2016-03-29T21:41:14.201Z,62
2016-03-29T21:44:14.475Z,62
2016-03-29T21:56:18.211Z,63
2016-03-29T22:03:20.527Z,63
2016-03-29T22:13:24.553Z,63
2016-03-29T23:15:00.311Z,64
2016-03-29T23:25:08.667Z,64
2016-03-29T23:26:09.795Z,64
2016-03-29T23:35:17.131Z,64
2016-03-29T23:37:19.090Z,64
2016-03-29T23:38:19.920Z,64
2016-03-29T23:46:26.508Z,63
2016-03-29T23:47:27.197Z,64
2016-03-29T23:48:28.028Z,64
2016-03-29T23:50:29.550Z,64
2016-03-29T23:51:30.614Z,64
2016-03-29T23:52:31.304Z,64
2016-03-29T23:54:32.951Z,64
2016-03-29T23:55:33.843Z,64
2016-03-29T23:56:34.738Z,64
2016-03-29T23:57:35.552Z,63
2016-03-29T23:58:36.243Z,63
2016-03-29T23:59:36.995Z,63
